Terminal Aerodrome Forecast
Issued by NWS

Home | Current Version | Previous Version | Text Only | Print | Product List | Glossary On
Versions: 1 2 3 4 5 6 7 8 9 10 11 12 13 14 15 16 17
000
FTUS43 KAPX 241741 CCA
TAFTVC
TAF COR
KTVC 241741Z 2418/2518 22010KT P6SM BKN110
     FM242200 22005KT 6SM -RA OVC060
     FM250100 14004KT 4SM RA OVC028
     FM250500 12011KT 2SM RA OVC009
     FM251200 18010KT 3SM -RA OVC015=

USA.gov is the U.S. government's official web portal to all federal, state and local government web resources and services.